createdAt,value
2022-08-02T00:00:56.695Z,99099.84
2022-08-02T00:03:24.467Z,99097.50
2022-08-02T00:05:53.621Z,99076.03
2022-08-02T00:08:21.889Z,99156.41
2022-08-02T00:10:49.021Z,99136.66
2022-08-02T00:13:15.784Z,99154.22
2022-08-02T00:15:42.585Z,99155.50
2022-08-02T00:18:09.385Z,99148.31
2022-08-02T00:20:36.220Z,99111.75
2022-08-02T00:23:03.204Z,99144.53
2022-08-02T00:25:29.992Z,99134.53
2022-08-02T00:27:56.697Z,99140.56
2022-08-02T00:30:23.548Z,99105.81
2022-08-02T00:32:50.311Z,99147.31
2022-08-02T00:35:17.330Z,99146.09
2022-08-02T00:37:44.340Z,99153.16
2022-08-02T00:40:11.904Z,99107.94
2022-08-02T00:42:40.005Z,99156.66
2022-08-02T00:45:09.400Z,99149.66
2022-08-02T00:47:36.364Z,99159.44
2022-08-02T00:50:03.715Z,99165.03
2022-08-02T00:52:30.491Z,99113.34
2022-08-02T00:54:57.473Z,99165.88
2022-08-02T00:57:24.265Z,99157.91
2022-08-02T01:00:02.159Z,99181.59
2022-08-02T01:02:29.092Z,99170.53
2022-08-02T01:04:55.899Z,99164.34
2022-08-02T01:07:22.684Z,99145.69
2022-08-02T01:09:49.531Z,99119.19
2022-08-02T01:12:16.716Z,99152.56
2022-08-02T01:14:47.059Z,99137.81
2022-08-02T01:17:38.808Z,99160.88
2022-08-02T01:20:17.304Z,99170.19
2022-08-02T01:23:04.363Z,99174.66
2022-08-02T01:25:53.502Z,99158.88
2022-08-02T01:28:26.099Z,99177.09
2022-08-02T01:31:32.779Z,99115.84
2022-08-02T01:34:24.939Z,99177.78
2022-08-02T01:37:01.085Z,99136.41
2022-08-02T01:39:32.342Z,99180.13
2022-08-02T01:42:01.460Z,99162.69
2022-08-02T01:44:31.998Z,99181.59
2022-08-02T01:47:05.724Z,99174.50
2022-08-02T01:49:53.119Z,99178.25
2022-08-02T01:52:24.110Z,99169.63
2022-08-02T01:55:06.909Z,99176.91
2022-08-02T01:57:49.779Z,99169.75
2022-08-02T02:00:18.043Z,99186.63
2022-08-02T02:02:47.944Z,99137.22
2022-08-02T02:05:18.363Z,99179.06
2022-08-02T02:07:46.828Z,99131.84
2022-08-02T02:10:16.900Z,99157.31
2022-08-02T02:12:46.824Z,99163.28
2022-08-02T02:15:13.918Z,99162.84
2022-08-02T02:17:53.209Z,99174.97
2022-08-02T02:20:39.822Z,99171.66
2022-08-02T02:23:06.741Z,99166.81
2022-08-02T02:25:41.401Z,99177.94
2022-08-02T02:28:13.105Z,99181.97
2022-08-02T02:30:43.085Z,99168.47
2022-08-02T02:33:10.722Z,99168.09
2022-08-02T02:35:38.539Z,99166.00
2022-08-02T02:38:13.816Z,99168.50
2022-08-02T02:40:42.179Z,99171.16
2022-08-02T02:43:12.323Z,99159.13
2022-08-02T02:45:40.737Z,99146.19
2022-08-02T02:48:09.491Z,99171.97
2022-08-02T02:50:38.585Z,99161.81
2022-08-02T02:53:07.163Z,99185.81
2022-08-02T02:55:34.579Z,99202.09
2022-08-02T02:58:03.051Z,99219.63
2022-08-02T03:00:49.203Z,99234.66
2022-08-02T03:03:17.020Z,99235.50
2022-08-02T03:05:48.582Z,99228.41
2022-08-02T03:08:15.472Z,99218.72
2022-08-02T03:10:43.963Z,99226.41
2022-08-02T03:13:20.041Z,99209.22
2022-08-02T03:15:48.060Z,99215.09
2022-08-02T03:18:37.592Z,99207.72
2022-08-02T03:21:06.552Z,99210.16
2022-08-02T03:23:34.119Z,99193.56
2022-08-02T03:26:01.411Z,99206.19
2022-08-02T03:28:28.513Z,99188.72
2022-08-02T03:30:55.319Z,99179.06
2022-08-02T03:33:23.999Z,99193.88
2022-08-02T03:35:53.117Z,99194.75
2022-08-02T03:38:22.803Z,99179.59
2022-08-02T03:40:57.987Z,99182.91
2022-08-02T03:43:28.584Z,99144.59
2022-08-02T03:45:56.114Z,99196.44
2022-08-02T03:48:30.523Z,99205.69
2022-08-02T03:51:02.731Z,99206.53
2022-08-02T03:53:30.213Z,99219.47
2022-08-02T03:55:57.891Z,99168.09
2022-08-02T03:58:25.614Z,99221.53
2022-08-02T04:00:54.508Z,99232.34
2022-08-02T04:03:21.600Z,99183.09
2022-08-02T04:06:00.809Z,99230.91
2022-08-02T04:08:35.244Z,99237.78
2022-08-02T04:11:22.928Z,99256.59
2022-08-02T04:13:49.987Z,99269.94
2022-08-02T04:16:22.857Z,99268.25
2022-08-02T04:18:56.916Z,99268.19
2022-08-02T04:21:49.117Z,99270.91
2022-08-02T04:24:18.946Z,99277.38
2022-08-02T04:26:48.084Z,99271.50
2022-08-02T04:29:18.674Z,99237.66
2022-08-02T04:31:46.016Z,99266.06
2022-08-02T04:34:15.399Z,99278.22
2022-08-02T04:36:43.283Z,99277.56
2022-08-02T04:39:13.462Z,99259.53
2022-08-02T04:41:44.532Z,99274.69
2022-08-02T04:44:12.526Z,99278.06
2022-08-02T04:46:41.087Z,99225.75
2022-08-02T04:49:22.051Z,99232.84
2022-08-02T04:51:55.354Z,99286.94
2022-08-02T04:54:25.931Z,99276.88
2022-08-02T04:56:59.831Z,99227.09
2022-08-02T04:59:29.854Z,99278.13
2022-08-02T05:01:56.610Z,99296.56
2022-08-02T05:04:30.651Z,99259.34
2022-08-02T05:07:03.849Z,99266.41
2022-08-02T05:09:30.742Z,99301.69
2022-08-02T05:11:59.575Z,99302.91
2022-08-02T05:14:26.389Z,99298.19
2022-08-02T05:16:53.282Z,99275.00
2022-08-02T05:19:20.076Z,99277.16
2022-08-02T05:21:46.875Z,99309.63
2022-08-02T05:24:13.970Z,99290.72
2022-08-02T05:26:40.771Z,99275.34
2022-08-02T05:29:07.500Z,99312.44
2022-08-02T05:31:34.198Z,99303.44
2022-08-02T05:34:01.043Z,99321.84
2022-08-02T05:36:27.862Z,99289.16
2022-08-02T05:38:56.762Z,99307.22
2022-08-02T05:41:31.662Z,99332.31
2022-08-02T05:43:58.546Z,99319.97
2022-08-02T05:46:25.283Z,99335.41
2022-08-02T05:48:52.087Z,99335.84
2022-08-02T05:51:44.392Z,99340.06
2022-08-02T05:54:26.819Z,99341.44
2022-08-02T05:57:02.526Z,99341.06
2022-08-02T05:59:45.371Z,99336.47
2022-08-02T06:02:33.970Z,99337.06
2022-08-02T06:05:25.419Z,99335.19
2022-08-02T06:07:55.305Z,99327.03
2022-08-02T06:10:22.558Z,99337.53
2022-08-02T06:12:51.170Z,99344.47
2022-08-02T06:15:20.309Z,99339.00
2022-08-02T06:17:48.093Z,99344.28
2022-08-02T06:20:18.168Z,99348.69
2022-08-02T06:22:46.652Z,99355.38
2022-08-02T06:25:48.144Z,99352.88
2022-08-02T06:28:03.343Z,99351.41
2022-08-02T06:30:31.377Z,99330.81
2022-08-02T06:33:00.446Z,99304.97
2022-08-02T06:35:40.209Z,99366.75
2022-08-02T06:38:08.721Z,99365.72
2022-08-02T06:41:09.678Z,99369.06
2022-08-02T06:43:51.241Z,99320.59
2022-08-02T06:47:09.114Z,99356.72
2022-08-02T06:49:05.202Z,99331.72
2022-08-02T06:51:33.043Z,99363.19
2022-08-02T06:54:09.039Z,99362.41
2022-08-02T06:56:35.821Z,99335.09
2022-08-02T06:59:05.979Z,99362.41
2022-08-02T07:01:39.046Z,99364.91
2022-08-02T07:04:06.343Z,99367.44
2022-08-02T07:06:33.262Z,99375.41
2022-08-02T07:09:20.133Z,99366.38
2022-08-02T07:11:46.894Z,99329.00
2022-08-02T07:14:13.631Z,99351.63
2022-08-02T07:16:40.551Z,99364.00
2022-08-02T07:19:07.325Z,99332.44
2022-08-02T07:21:59.403Z,99329.78
2022-08-02T07:24:20.924Z,99362.34
2022-08-02T07:27:09.624Z,99360.81
2022-08-02T07:29:44.998Z,99363.66
2022-08-02T07:32:12.657Z,99352.09
2022-08-02T07:34:39.851Z,99357.78
2022-08-02T07:37:11.872Z,99361.00
2022-08-02T07:39:57.710Z,99367.72
2022-08-02T07:42:25.198Z,99288.66
2022-08-02T07:44:52.433Z,99319.47
2022-08-02T07:47:19.279Z,99353.31
2022-08-02T07:49:46.330Z,99353.13
2022-08-02T07:52:13.571Z,99362.75
2022-08-02T07:54:41.856Z,99355.69
2022-08-02T07:57:08.958Z,99351.50
2022-08-02T07:59:35.842Z,99302.50
2022-08-02T08:02:02.699Z,99350.63
2022-08-02T08:04:29.680Z,99353.94
2022-08-02T08:06:56.921Z,99352.31
2022-08-02T08:09:23.987Z,99346.00
2022-08-02T08:11:50.871Z,99317.00
2022-08-02T08:14:17.869Z,99324.59
2022-08-02T08:16:44.771Z,99281.97
2022-08-02T08:19:11.596Z,99305.97
2022-08-02T08:21:38.433Z,99321.03
2022-08-02T08:24:05.666Z,99298.16
2022-08-02T08:26:32.652Z,99303.97
2022-08-02T08:29:02.046Z,99305.69
2022-08-02T08:31:28.962Z,99350.13
2022-08-02T08:33:57.977Z,99325.94
2022-08-02T08:36:24.922Z,99328.81
2022-08-02T08:38:51.722Z,99322.34
2022-08-02T08:41:30.151Z,99346.88
2022-08-02T08:43:59.288Z,99328.25
2022-08-02T08:46:36.925Z,99350.03
2022-08-02T08:49:28.568Z,99331.16
2022-08-02T08:52:08.743Z,99336.66
2022-08-02T08:54:41.951Z,99322.28
2022-08-02T08:57:10.690Z,99276.31
2022-08-02T08:59:40.514Z,99339.78
2022-08-02T09:02:16.501Z,99286.97
2022-08-02T09:04:54.856Z,99312.31
2022-08-02T09:07:23.319Z,99330.25
2022-08-02T09:10:04.591Z,99285.47
2022-08-02T09:12:36.833Z,99280.16
2022-08-02T09:15:24.889Z,99329.88
2022-08-02T09:17:52.287Z,99311.47
2022-08-02T09:20:31.308Z,99359.28
2022-08-02T09:23:12.468Z,99330.09
2022-08-02T09:25:40.525Z,99287.84
2022-08-02T09:28:33.860Z,99290.34
2022-08-02T09:31:18.643Z,99340.75
2022-08-02T09:33:52.000Z,99337.03
2022-08-02T09:36:19.352Z,99339.09
2022-08-02T09:39:14.043Z,99352.25
2022-08-02T09:41:43.066Z,99347.59
2022-08-02T09:44:15.935Z,99302.50
2022-08-02T09:46:45.341Z,99347.28
2022-08-02T09:49:17.448Z,99289.06
2022-08-02T09:51:47.489Z,99356.38
2022-08-02T09:54:24.114Z,99283.22
2022-08-02T09:56:57.455Z,99290.78
2022-08-02T09:59:25.766Z,99344.09
2022-08-02T10:02:01.812Z,99327.25
2022-08-02T10:04:34.307Z,99281.38
2022-08-02T10:07:17.200Z,99331.59
2022-08-02T10:09:47.598Z,99306.72
2022-08-02T10:12:15.594Z,99322.44
2022-08-02T10:14:43.921Z,99339.63
2022-08-02T10:17:11.182Z,99332.94
2022-08-02T10:20:00.047Z,99324.50
2022-08-02T10:22:25.882Z,99312.38
2022-08-02T10:24:53.726Z,99321.47
2022-08-02T10:27:21.958Z,99322.81
2022-08-02T10:29:55.098Z,99319.25
2022-08-02T10:32:40.194Z,99327.38
2022-08-02T10:35:19.402Z,99307.28
2022-08-02T10:38:01.590Z,99314.44
2022-08-02T10:40:51.924Z,99315.81
2022-08-02T10:43:36.733Z,99316.72
2022-08-02T10:46:23.674Z,99315.97
2022-08-02T10:51:59.319Z,99307.25
2022-08-02T10:54:37.601Z,99314.84
2022-08-02T10:57:15.584Z,99316.19
2022-08-02T10:59:43.459Z,99305.78
2022-08-02T11:02:10.417Z,99308.75
2022-08-02T11:04:37.152Z,99299.50
2022-08-02T11:07:23.497Z,99298.44
2022-08-02T11:09:50.964Z,99288.63
2022-08-02T11:12:21.190Z,99291.38
2022-08-02T11:15:01.588Z,99291.69
2022-08-02T11:17:38.245Z,99284.53
2022-08-02T11:20:17.669Z,99290.50
2022-08-02T11:22:46.130Z,99289.47
2022-08-02T11:25:25.019Z,99297.47
2022-08-02T11:28:00.095Z,99286.44
2022-08-02T11:30:27.669Z,99278.63
2022-08-02T11:32:59.007Z,99276.28
2022-08-02T11:35:37.423Z,99281.34
2022-08-02T11:38:18.760Z,99277.38
2022-08-02T11:40:46.638Z,99269.38
2022-08-02T11:43:20.699Z,99271.03
2022-08-02T11:45:49.548Z,99259.94
2022-08-02T11:48:31.263Z,99272.41
2022-08-02T11:51:16.551Z,99264.38
2022-08-02T11:53:54.479Z,99259.34
2022-08-02T11:56:29.538Z,99265.19
2022-08-02T11:59:08.877Z,99271.88
2022-08-02T12:01:45.265Z,99263.56
2022-08-02T12:04:17.080Z,99237.22
2022-08-02T12:06:44.104Z,99241.66
2022-08-02T12:09:18.665Z,99255.25
2022-08-02T12:11:50.668Z,99251.88
2022-08-02T12:14:17.712Z,99238.09
2022-08-02T12:17:03.492Z,99259.31
2022-08-02T12:19:30.432Z,99255.63
2022-08-02T12:22:18.217Z,99253.41
2022-08-02T12:24:50.706Z,99248.22
2022-08-02T12:27:32.826Z,99243.59
2022-08-02T12:30:14.468Z,99234.63
2022-08-02T12:32:41.871Z,99228.97
2022-08-02T12:35:26.646Z,99232.91
2022-08-02T12:37:54.200Z,99226.91
2022-08-02T12:40:31.620Z,99226.19
2022-08-02T12:43:05.551Z,99220.19
2022-08-02T12:45:54.338Z,99218.31
2022-08-02T12:48:56.580Z,99219.13
2022-08-02T12:51:51.214Z,99203.94
2022-08-02T12:54:32.077Z,99196.41
2022-08-02T12:57:11.707Z,99184.47
2022-08-02T12:59:41.372Z,99203.50
2022-08-02T13:02:13.266Z,99201.88
2022-08-02T13:04:40.550Z,99170.84
2022-08-02T13:07:08.591Z,99167.59
2022-08-02T13:09:44.500Z,99158.81
2022-08-02T13:12:12.034Z,99189.44
2022-08-02T13:14:42.224Z,99174.88
2022-08-02T13:17:10.390Z,99163.22
2022-08-02T13:19:38.702Z,99196.16
2022-08-02T13:22:06.056Z,99174.75
2022-08-02T13:24:40.201Z,99173.09
2022-08-02T13:27:21.233Z,99191.66
2022-08-02T13:29:49.211Z,99200.16
2022-08-02T13:32:16.894Z,99176.81
2022-08-02T13:34:44.304Z,99186.19
2022-08-02T13:37:12.648Z,99181.44
2022-08-02T13:39:39.459Z,99183.25
2022-08-02T13:42:07.213Z,99174.09
2022-08-02T13:44:34.860Z,99183.00
2022-08-02T13:47:02.639Z,99172.16
2022-08-02T13:49:51.425Z,99178.06
2022-08-02T13:52:17.134Z,99175.75
2022-08-02T13:54:44.419Z,99168.59
2022-08-02T13:57:11.322Z,99169.59
2022-08-02T13:59:57.227Z,99169.97
2022-08-02T14:02:25.389Z,99148.84
2022-08-02T14:04:52.159Z,99160.91
2022-08-02T14:07:19.028Z,99162.88
2022-08-02T14:09:46.070Z,99138.63
2022-08-02T14:12:13.535Z,99139.91
2022-08-02T14:14:40.580Z,99123.53
2022-08-02T14:17:07.455Z,99133.78
2022-08-02T14:19:34.380Z,99105.66
2022-08-02T14:22:11.242Z,99121.44
2022-08-02T14:24:40.120Z,99122.59
2022-08-02T14:27:07.437Z,99120.25
2022-08-02T14:29:34.824Z,99114.09
2022-08-02T14:32:01.861Z,99103.38
2022-08-02T14:34:29.297Z,99107.38
2022-08-02T14:36:56.966Z,99102.19
2022-08-02T14:39:24.200Z,99111.25
2022-08-02T14:41:59.863Z,99108.97
2022-08-02T14:44:28.969Z,99088.38
2022-08-02T14:46:56.410Z,99102.09
2022-08-02T14:49:25.292Z,99109.22
2022-08-02T14:51:56.508Z,99118.81
2022-08-02T14:54:30.908Z,99121.75
2022-08-02T14:57:03.451Z,99073.41
2022-08-02T14:59:31.055Z,99117.22
2022-08-02T15:01:59.038Z,99102.38
2022-08-02T15:04:26.101Z,99086.16
2022-08-02T15:06:53.496Z,99128.28
2022-08-02T15:09:21.374Z,99122.56
2022-08-02T15:11:49.341Z,99129.03
2022-08-02T15:14:26.194Z,99133.34
2022-08-02T15:16:57.525Z,99129.75
2022-08-02T15:19:38.533Z,99133.28
2022-08-02T15:22:15.941Z,99143.88
2022-08-02T15:24:44.670Z,99136.38
2022-08-02T15:27:15.839Z,99127.19
2022-08-02T15:29:44.132Z,99141.06
2022-08-02T15:32:11.824Z,99138.75
2022-08-02T15:34:39.417Z,99124.25
2022-08-02T15:37:06.561Z,99128.78
2022-08-02T15:39:33.419Z,99127.34
2022-08-02T15:42:00.166Z,99125.22
2022-08-02T15:44:26.966Z,99127.41
2022-08-02T15:47:00.219Z,99116.41
2022-08-02T15:49:27.366Z,99126.16
2022-08-02T15:51:54.865Z,99110.34
2022-08-02T15:54:23.482Z,99130.28
2022-08-02T15:56:50.598Z,99124.72
2022-08-02T15:59:17.930Z,99112.03
2022-08-02T16:01:47.781Z,99116.72
2022-08-02T16:04:16.272Z,99123.94
2022-08-02T16:06:43.916Z,99121.16
2022-08-02T16:09:11.088Z,99117.25
2022-08-02T16:11:38.586Z,99125.03
2022-08-02T16:14:05.591Z,99119.69
2022-08-02T16:16:35.544Z,99126.41
2022-08-02T16:19:29.996Z,99115.91
2022-08-02T16:21:52.291Z,99127.53
2022-08-02T16:24:19.060Z,99122.53
2022-08-02T16:26:45.928Z,99108.41
2022-08-02T16:29:13.075Z,99097.84
2022-08-02T16:31:42.439Z,99123.50
2022-08-02T16:34:10.141Z,99100.03
2022-08-02T16:36:37.289Z,99103.94
2022-08-02T16:39:07.620Z,99119.16
2022-08-02T16:41:51.090Z,99049.69
2022-08-02T16:44:27.565Z,99067.94
2022-08-02T16:47:01.283Z,99093.97
2022-08-02T16:50:05.485Z,99095.34
2022-08-02T16:52:16.599Z,99076.78
2022-08-02T16:54:49.454Z,99061.22
2022-08-02T16:57:19.822Z,99116.00
2022-08-02T16:59:57.372Z,99123.69
2022-08-02T17:02:27.971Z,99078.81
2022-08-02T17:04:55.575Z,99112.03
2022-08-02T17:08:08.662Z,99111.09
2022-08-02T17:10:13.571Z,99093.72
2022-08-02T17:12:45.851Z,99072.06
2022-08-02T17:16:17.321Z,99106.19
2022-08-02T17:18:05.515Z,99088.06
2022-08-02T17:20:36.252Z,99112.97
2022-08-02T17:23:07.302Z,99092.16
2022-08-02T17:25:41.826Z,99068.50
2022-08-02T17:28:09.568Z,99107.97
2022-08-02T17:30:36.684Z,99086.69
2022-08-02T17:33:03.958Z,99070.63
2022-08-02T17:35:43.210Z,99062.28
2022-08-02T17:38:26.334Z,99090.63
2022-08-02T17:40:55.829Z,99110.13
2022-08-02T17:43:22.924Z,99133.53
2022-08-02T17:46:00.077Z,99140.53
2022-08-02T17:48:50.266Z,99140.75
2022-08-02T17:52:14.922Z,99112.50
2022-08-02T17:54:09.309Z,99149.63
2022-08-02T17:56:37.426Z,99149.94
2022-08-02T17:59:20.862Z,99145.41
2022-08-02T18:02:03.860Z,99146.94
2022-08-02T18:04:31.548Z,99124.28
2022-08-02T18:07:03.884Z,99150.41
2022-08-02T18:09:32.413Z,99152.56
2022-08-02T18:12:01.383Z,99154.56
2022-08-02T18:14:28.183Z,99156.84
2022-08-02T18:16:56.215Z,99147.63
2022-08-02T18:19:42.751Z,99126.38
2022-08-02T18:22:11.570Z,99101.38
2022-08-02T18:24:40.763Z,99123.16
2022-08-02T18:27:07.835Z,99155.94
2022-08-02T18:29:38.510Z,99120.94
2022-08-02T18:32:11.813Z,99156.47
2022-08-02T18:34:39.920Z,99161.59
2022-08-02T18:37:07.229Z,99156.59
2022-08-02T18:39:38.479Z,99139.84
2022-08-02T18:42:06.877Z,99158.09
2022-08-02T18:44:34.026Z,99169.34
2022-08-02T18:47:03.358Z,99150.41
2022-08-02T18:49:46.767Z,99175.16
2022-08-02T18:55:17.088Z,99170.22
2022-08-02T18:58:18.464Z,99154.75
2022-08-02T19:00:39.650Z,99158.63
2022-08-02T19:03:07.019Z,99178.53
2022-08-02T19:05:52.146Z,99098.03
2022-08-02T19:08:25.546Z,99120.06
2022-08-02T19:10:56.155Z,99139.41
2022-08-02T19:13:24.919Z,99170.00
2022-08-02T19:16:12.330Z,99200.53
2022-08-02T19:18:39.900Z,99192.69
2022-08-02T19:21:08.572Z,99198.34
2022-08-02T19:23:36.222Z,99204.88
2022-08-02T19:26:04.051Z,99198.16
2022-08-02T19:28:31.743Z,99186.25
2022-08-02T19:31:01.480Z,99194.66
2022-08-02T19:34:04.442Z,99189.22
2022-08-02T19:36:17.145Z,99143.00
2022-08-02T19:38:45.660Z,99186.41
2022-08-02T19:41:16.291Z,99193.97
2022-08-02T19:44:25.767Z,99147.69
2022-08-02T19:46:31.317Z,99206.78
2022-08-02T19:49:16.582Z,99172.03
2022-08-02T19:51:55.051Z,99214.63
2022-08-02T19:55:59.449Z,99223.66
2022-08-02T19:58:11.532Z,99189.66
2022-08-02T20:00:40.078Z,99229.25
2022-08-02T20:03:16.166Z,99163.47
2022-08-02T20:09:58.197Z,99179.63
2022-08-02T20:13:08.328Z,99222.41
2022-08-02T20:15:56.100Z,99209.63
2022-08-02T20:43:57.021Z,99222.56
2022-08-02T20:46:53.696Z,99216.91
2022-08-02T20:50:35.681Z,99221.97
2022-08-02T20:57:07.368Z,99147.84
2022-08-02T21:00:36.288Z,99142.81
2022-08-02T21:03:05.358Z,99169.66
2022-08-02T21:09:16.931Z,99145.66
2022-08-02T21:12:06.239Z,99191.38
2022-08-02T21:15:17.437Z,99174.38
2022-08-02T21:18:07.353Z,99226.88
2022-08-02T21:21:18.732Z,99137.88
2022-08-02T21:28:01.052Z,99208.25
2022-08-02T21:30:48.153Z,99135.69
2022-08-02T21:34:21.574Z,99175.50
2022-08-02T21:40:31.911Z,99149.84
2022-08-02T21:44:05.013Z,99224.56
2022-08-02T21:47:47.968Z,99224.50
2022-08-02T21:50:37.701Z,99141.84
2022-08-02T21:54:17.770Z,99197.25
2022-08-02T22:06:13.862Z,99172.97
2022-08-02T22:09:46.063Z,99223.09
2022-08-02T22:12:31.562Z,99229.78
2022-08-02T22:15:36.203Z,99150.44
2022-08-02T22:22:09.109Z,99241.28
2022-08-02T22:28:35.817Z,99227.16
2022-08-02T22:30:45.111Z,99246.19
2022-08-02T22:33:37.880Z,99242.63
2022-08-02T22:36:05.285Z,99253.06
2022-08-02T22:38:32.073Z,99249.63
2022-08-02T22:40:59.396Z,99247.03
2022-08-02T22:43:27.419Z,99243.66
2022-08-02T22:45:58.196Z,99255.25
2022-08-02T22:48:25.077Z,99245.72
2022-08-02T22:50:51.845Z,99256.41
2022-08-02T22:53:35.585Z,99259.97
2022-08-02T22:56:04.455Z,99240.84
2022-08-02T22:58:32.036Z,99246.53
2022-08-02T22:58:45.839Z,99144.66
2022-08-02T23:03:33.698Z,99267.47
2022-08-02T23:06:00.523Z,99250.66
2022-08-02T23:08:27.269Z,99241.78
2022-08-02T23:10:54.000Z,99254.66
2022-08-02T23:13:22.431Z,99262.31
2022-08-02T23:16:10.890Z,99246.72
2022-08-02T23:18:56.452Z,99256.81
2022-08-02T23:21:45.558Z,99245.53
2022-08-02T23:24:10.356Z,99257.53
2022-08-02T23:26:37.095Z,99258.09
2022-08-02T23:29:03.852Z,99256.53
2022-08-02T23:31:37.497Z,99246.72
2022-08-02T23:34:05.937Z,99247.84
2022-08-02T23:36:34.033Z,99255.16
2022-08-02T23:39:00.857Z,99258.44
2022-08-02T23:41:28.209Z,99258.25
2022-08-02T23:44:12.586Z,99260.69
2022-08-02T23:46:42.370Z,99255.72
2022-08-02T23:49:09.497Z,99257.13
2022-08-02T23:51:36.328Z,99253.97
2022-08-02T23:54:03.062Z,99251.72
2022-08-02T23:56:30.334Z,99235.47
2022-08-02T23:58:57.084Z,99242.78
